sensor_id;sensor_type;location;lat;lon;timestamp;pressure;altitude;pressure_sealevel;temperature;humidity
63194;BME280;49289;51.670;5.624;2023-04-03T00:01:39;103130.19;;;8.35;59.31
63194;BME280;49289;51.670;5.624;2023-04-03T00:03:27;103148.63;;;8.51;58.68
63194;BME280;49289;51.670;5.624;2023-04-03T00:05:14;103138.17;;;8.66;58.16
63194;BME280;49289;51.670;5.624;2023-04-03T00:07:02;103133.81;;;8.66;57.93
63194;BME280;49289;51.670;5.624;2023-04-03T00:08:49;103134.56;;;8.74;57.55
63194;BME280;49289;51.670;5.624;2023-04-03T00:10:36;103155.00;;;8.86;57.36
63194;BME280;49289;51.670;5.624;2023-04-03T00:12:23;103151.02;;;8.97;57.07
63194;BME280;49289;51.670;5.624;2023-04-03T00:14:10;103150.12;;;8.91;56.83
63194;BME280;49289;51.670;5.624;2023-04-03T00:15:57;103145.95;;;8.77;56.51
63194;BME280;49289;51.670;5.624;2023-04-03T00:17:44;103141.77;;;8.67;56.62
63194;BME280;49289;51.670;5.624;2023-04-03T00:19:31;103142.16;;;8.74;56.62
63194;BME280;49289;51.670;5.624;2023-04-03T00:21:18;103169.36;;;8.83;56.62
63194;BME280;49289;51.670;5.624;2023-04-03T00:23:05;103146.63;;;8.69;56.54
63194;BME280;49289;51.670;5.624;2023-04-03T00:24:52;103166.16;;;8.85;56.53
63194;BME280;49289;51.670;5.624;2023-04-03T00:26:39;103144.45;;;8.82;56.31
63194;BME280;49289;51.670;5.624;2023-04-03T00:28:26;103146.31;;;8.76;56.64
63194;BME280;49289;51.670;5.624;2023-04-03T00:30:14;103153.92;;;8.81;56.48
63194;BME280;49289;51.670;5.624;2023-04-03T00:32:01;103142.53;;;8.85;56.15
63194;BME280;49289;51.670;5.624;2023-04-03T00:33:49;103162.99;;;8.94;56.10
63194;BME280;49289;51.670;5.624;2023-04-03T00:35:36;103142.45;;;8.86;56.20
63194;BME280;49289;51.670;5.624;2023-04-03T00:37:23;103142.41;;;8.80;56.39
63194;BME280;49289;51.670;5.624;2023-04-03T00:39:10;103161.36;;;8.90;56.29
63194;BME280;49289;51.670;5.624;2023-04-03T00:40:57;103166.34;;;8.82;56.15
63194;BME280;49289;51.670;5.624;2023-04-03T00:42:32;103167.79;;;8.90;55.75
63194;BME280;49289;51.670;5.624;2023-04-03T00:46:33;103169.84;;;8.81;55.88
63194;BME280;49289;51.670;5.624;2023-04-03T00:48:22;103150.37;;;8.65;56.20
63194;BME280;49289;51.670;5.624;2023-04-03T00:50:09;103176.50;;;8.80;56.03
63194;BME280;49289;51.670;5.624;2023-04-03T00:51:56;103159.10;;;8.70;56.06
63194;BME280;49289;51.670;5.624;2023-04-03T00:53:44;103159.86;;;8.75;56.12
63194;BME280;49289;51.670;5.624;2023-04-03T00:55:30;103159.78;;;8.69;55.92
63194;BME280;49289;51.670;5.624;2023-04-03T00:57:17;103158.31;;;8.66;55.84
63194;BME280;49289;51.670;5.624;2023-04-03T00:59:05;103175.95;;;8.71;55.94
63194;BME280;49289;51.670;5.624;2023-04-03T01:00:53;103160.38;;;8.58;56.07
63194;BME280;49289;51.670;5.624;2023-04-03T01:02:39;103160.49;;;8.64;56.04
63194;BME280;49289;51.670;5.624;2023-04-03T01:04:39;103182.91;;;8.72;56.18
63194;BME280;49289;51.670;5.624;2023-04-03T01:06:27;103181.20;;;8.75;56.26
63194;BME280;49289;51.670;5.624;2023-04-03T01:08:12;103186.48;;;8.75;56.21
63194;BME280;49289;51.670;5.624;2023-04-03T01:10:00;103182.95;;;8.72;56.32
63194;BME280;49289;51.670;5.624;2023-04-03T01:11:46;103182.87;;;8.66;56.28
63194;BME280;49289;51.670;5.624;2023-04-03T01:13:33;103164.24;;;8.56;56.14
63194;BME280;49289;51.670;5.624;2023-04-03T01:15:23;103181.23;;;8.62;56.34
63194;BME280;49289;51.670;5.624;2023-04-03T01:19:11;103187.41;;;8.63;56.40
63194;BME280;49289;51.670;5.624;2023-04-03T01:21:16;103167.95;;;8.56;56.21
63194;BME280;49289;51.670;5.624;2023-04-03T01:23:04;103190.05;;;8.65;56.32
63194;BME280;49289;51.670;5.624;2023-04-03T01:24:51;103191.27;;;8.69;56.35
63194;BME280;49289;51.670;5.624;2023-04-03T01:26:39;103189.50;;;8.70;56.32
63194;BME280;49289;51.670;5.624;2023-04-03T01:28:27;103185.13;;;8.73;56.18
63194;BME280;49289;51.670;5.624;2023-04-03T01:30:17;103186.16;;;8.71;56.29
63194;BME280;49289;51.670;5.624;2023-04-03T01:32:04;103191.14;;;8.72;56.26
63194;BME280;49289;51.670;5.624;2023-04-03T01:33:51;103171.03;;;8.60;56.23
63194;BME280;49289;51.670;5.624;2023-04-03T01:35:38;103168.87;;;8.58;56.15
63194;BME280;49289;51.670;5.624;2023-04-03T01:37:25;103187.24;;;8.60;56.25
63194;BME280;49289;51.670;5.624;2023-04-03T01:39:12;103167.05;;;8.50;55.96
63194;BME280;49289;51.670;5.624;2023-04-03T01:41:01;103187.70;;;8.58;56.22
63194;BME280;49289;51.670;5.624;2023-04-03T01:42:48;103191.67;;;8.54;56.34
63194;BME280;49289;51.670;5.624;2023-04-03T01:44:35;103165.42;;;8.47;56.28
63194;BME280;49289;51.670;5.624;2023-04-03T01:46:22;103192.58;;;8.60;56.26
63194;BME280;49289;51.670;5.624;2023-04-03T01:48:10;103190.09;;;8.54;56.21
63194;BME280;49289;51.670;5.624;2023-04-03T01:49:58;103191.26;;;8.53;56.21
63194;BME280;49289;51.670;5.624;2023-04-03T01:51:46;103188.66;;;8.57;56.05
63194;BME280;49289;51.670;5.624;2023-04-03T01:53:34;103186.86;;;8.57;56.03
63194;BME280;49289;51.670;5.624;2023-04-03T01:55:22;103189.42;;;8.57;55.96
63194;BME280;49289;51.670;5.624;2023-04-03T01:57:09;103171.64;;;8.47;56.00
63194;BME280;49289;51.670;5.624;2023-04-03T01:58:57;103194.45;;;8.66;55.84
63194;BME280;49289;51.670;5.624;2023-04-03T02:00:45;103174.20;;;8.44;56.16
63194;BME280;49289;51.670;5.624;2023-04-03T02:02:33;103189.37;;;8.54;56.22
63194;BME280;49289;51.670;5.624;2023-04-03T02:04:20;103192.05;;;8.52;56.47
63194;BME280;49289;51.670;5.624;2023-04-03T02:06:09;103198.52;;;8.42;56.49
63194;BME280;49289;51.670;5.624;2023-04-03T02:07:57;103176.73;;;8.32;56.59
63194;BME280;49289;51.670;5.624;2023-04-03T02:09:45;103173.05;;;8.29;56.59
63194;BME280;49289;51.670;5.624;2023-04-03T02:11:33;103197.75;;;8.36;56.68
63194;BME280;49289;51.670;5.624;2023-04-03T02:13:20;103177.78;;;8.19;56.76
63194;BME280;49289;51.670;5.624;2023-04-03T02:15:08;103202.24;;;8.35;56.61
63194;BME280;49289;51.670;5.624;2023-04-03T02:16:55;103182.42;;;8.19;56.73
63194;BME280;49289;51.670;5.624;2023-04-03T02:18:42;103206.55;;;8.28;56.88
63194;BME280;49289;51.670;5.624;2023-04-03T02:20:29;103183.88;;;8.21;56.67
63194;BME280;49289;51.670;5.624;2023-04-03T02:22:16;103202.30;;;8.25;56.70
63194;BME280;49289;51.670;5.624;2023-04-03T02:24:03;103207.14;;;8.28;56.78
63194;BME280;49289;51.670;5.624;2023-04-03T02:25:50;103197.81;;;8.23;56.69
63194;BME280;49289;51.670;5.624;2023-04-03T02:27:37;103205.86;;;8.32;56.71
63194;BME280;49289;51.670;5.624;2023-04-03T02:29:24;103190.29;;;8.26;56.49
63194;BME280;49289;51.670;5.624;2023-04-03T02:31:11;103208.22;;;8.36;56.54
63194;BME280;49289;51.670;5.624;2023-04-03T02:32:58;103212.75;;;8.32;56.52
63194;BME280;49289;51.670;5.624;2023-04-03T02:34:45;103210.48;;;8.33;56.46
63194;BME280;49289;51.670;5.624;2023-04-03T02:36:32;103190.88;;;8.21;56.37
63194;BME280;49289;51.670;5.624;2023-04-03T02:38:19;103196.61;;;8.23;56.38
63194;BME280;49289;51.670;5.624;2023-04-03T02:40:06;103215.59;;;8.36;56.27
63194;BME280;49289;51.670;5.624;2023-04-03T02:41:53;103213.05;;;8.35;56.52
63194;BME280;49289;51.670;5.624;2023-04-03T02:43:40;103211.60;;;8.36;56.43
63194;BME280;49289;51.670;5.624;2023-04-03T02:45:27;103197.41;;;8.17;56.52
63194;BME280;49289;51.670;5.624;2023-04-03T02:47:14;103214.97;;;8.32;56.66
63194;BME280;49289;51.670;5.624;2023-04-03T02:49:01;103191.36;;;8.29;56.66
63194;BME280;49289;51.670;5.624;2023-04-03T02:50:48;103215.19;;;8.51;56.20
63194;BME280;49289;51.670;5.624;2023-04-03T02:52:36;103215.18;;;8.54;56.08
63194;BME280;49289;51.670;5.624;2023-04-03T02:54:24;103213.03;;;8.61;55.90
63194;BME280;49289;51.670;5.624;2023-04-03T02:56:11;103215.77;;;8.62;55.82
63194;BME280;49289;51.670;5.624;2023-04-03T02:57:59;103213.45;;;8.59;55.65
63194;BME280;49289;51.670;5.624;2023-04-03T02:59:48;103215.89;;;8.46;55.41
63194;BME280;49289;51.670;5.624;2023-04-03T03:01:35;103217.39;;;8.58;55.49
63194;BME280;49289;51.670;5.624;2023-04-03T03:03:22;103203.25;;;8.53;55.56
63194;BME280;49289;51.670;5.624;2023-04-03T03:05:09;103218.91;;;8.59;55.33
63194;BME280;49289;51.670;5.624;2023-04-03T03:06:57;103203.19;;;8.57;55.34
63194;BME280;49289;51.670;5.624;2023-04-03T03:08:45;103218.55;;;8.62;55.09
63194;BME280;49289;51.670;5.624;2023-04-03T03:10:33;103219.13;;;8.65;55.32
63194;BME280;49289;51.670;5.624;2023-04-03T03:12:22;103220.03;;;8.71;55.23
63194;BME280;49289;51.670;5.624;2023-04-03T03:14:10;103220.13;;;8.65;55.29
63194;BME280;49289;51.670;5.624;2023-04-03T03:15:58;103200.09;;;8.48;55.41
63194;BME280;49289;51.670;5.624;2023-04-03T03:17:46;103220.90;;;8.61;55.33
63194;BME280;49289;51.670;5.624;2023-04-03T03:19:34;103220.01;;;8.50;55.12
63194;BME280;49289;51.670;5.624;2023-04-03T03:21:22;103220.61;;;8.56;55.07
63194;BME280;49289;51.670;5.624;2023-04-03T03:23:09;103220.78;;;8.58;54.91
63194;BME280;49289;51.670;5.624;2023-04-03T03:25:01;103202.55;;;8.53;55.04
63194;BME280;49289;51.670;5.624;2023-04-03T03:26:49;103218.54;;;8.58;54.86
63194;BME280;49289;51.670;5.624;2023-04-03T03:28:38;103221.72;;;8.57;54.89
63194;BME280;49289;51.670;5.624;2023-04-03T03:30:26;103225.84;;;8.51;55.12
63194;BME280;49289;51.670;5.624;2023-04-03T03:32:16;103223.70;;;8.49;55.18
63194;BME280;49289;51.670;5.624;2023-04-03T03:34:03;103208.25;;;8.34;55.07
63194;BME280;49289;51.670;5.624;2023-04-03T03:35:50;103204.77;;;8.32;55.05
63194;BME280;49289;51.670;5.624;2023-04-03T03:37:37;103227.86;;;8.46;55.14
63194;BME280;49289;51.670;5.624;2023-04-03T03:39:24;103213.97;;;8.31;55.08
63194;BME280;49289;51.670;5.624;2023-04-03T03:41:11;103233.30;;;8.39;55.23
63194;BME280;49289;51.670;5.624;2023-04-03T03:42:58;103236.69;;;8.46;55.00
63194;BME280;49289;51.670;5.624;2023-04-03T03:44:45;103217.83;;;8.31;54.95
63194;BME280;49289;51.670;5.624;2023-04-03T03:46:32;103239.40;;;8.39;55.06
63194;BME280;49289;51.670;5.624;2023-04-03T03:48:22;103217.34;;;8.28;55.12
63194;BME280;49289;51.670;5.624;2023-04-03T03:50:09;103237.88;;;8.36;55.29
63194;BME280;49289;51.670;5.624;2023-04-03T03:51:58;103243.70;;;8.42;55.17
63194;BME280;49289;51.670;5.624;2023-04-03T03:53:45;103240.78;;;8.43;55.02
63194;BME280;49289;51.670;5.624;2023-04-03T03:55:33;103238.34;;;8.48;54.78
63194;BME280;49289;51.670;5.624;2023-04-03T03:57:21;103239.33;;;8.45;54.95
63194;BME280;49289;51.670;5.624;2023-04-03T03:59:10;103244.33;;;8.43;54.91
63194;BME280;49289;51.670;5.624;2023-04-03T04:00:57;103227.28;;;8.30;54.84
63194;BME280;49289;51.670;5.624;2023-04-03T04:02:45;103243.08;;;8.43;54.91
63194;BME280;49289;51.670;5.624;2023-04-03T04:06:20;103243.34;;;8.39;55.20
63194;BME280;49289;51.670;5.624;2023-04-03T04:08:07;103250.22;;;8.36;55.34
63194;BME280;49289;51.670;5.624;2023-04-03T04:09:54;103233.11;;;8.28;55.01
63194;BME280;49289;51.670;5.624;2023-04-03T04:11:41;103229.51;;;8.21;55.24
63194;BME280;49289;51.670;5.624;2023-04-03T04:13:28;103265.93;;;8.22;55.56
63194;BME280;49289;51.670;5.624;2023-04-03T04:15:15;103267.98;;;8.19;55.58
63194;BME280;49289;51.670;5.624;2023-04-03T04:17:03;103266.20;;;8.20;55.23
63194;BME280;49289;51.670;5.624;2023-04-03T04:18:51;103244.28;;;8.04;55.12
63194;BME280;49289;51.670;5.624;2023-04-03T04:20:39;103263.54;;;8.12;55.21
63194;BME280;49289;51.670;5.624;2023-04-03T04:22:27;103265.83;;;8.14;55.06
63194;BME280;49289;51.670;5.624;2023-04-03T04:24:16;103241.69;;;8.01;55.03
63194;BME280;49289;51.670;5.624;2023-04-03T04:26:03;103263.38;;;8.06;55.17
63194;BME280;49289;51.670;5.624;2023-04-03T04:27:51;103242.42;;;7.90;55.33
63194;BME280;49289;51.670;5.624;2023-04-03T04:29:39;103255.60;;;7.93;55.49
63194;BME280;49289;51.670;5.624;2023-04-03T04:31:27;103261.35;;;7.98;55.67
63194;BME280;49289;51.670;5.624;2023-04-03T04:33:15;103261.45;;;7.96;55.69
63194;BME280;49289;51.670;5.624;2023-04-03T04:35:03;103265.38;;;7.93;55.75
63194;BME280;49289;51.670;5.624;2023-04-03T04:37:49;103258.99;;;8.01;55.66
63194;BME280;49289;51.670;5.624;2023-04-03T04:39:36;103263.08;;;7.99;55.68
63194;BME280;49289;51.670;5.624;2023-04-03T04:41:25;103257.62;;;7.81;56.03
63194;BME280;49289;51.670;5.624;2023-04-03T04:43:12;103263.95;;;7.86;56.11
63194;BME280;49289;51.670;5.624;2023-04-03T04:45:00;103264.42;;;7.76;56.40
63194;BME280;49289;51.670;5.624;2023-04-03T04:46:48;103266.71;;;7.76;56.31
63194;BME280;49289;51.670;5.624;2023-04-03T04:48:36;103272.34;;;7.73;56.45
63194;BME280;49289;51.670;5.624;2023-04-03T04:50:24;103271.61;;;7.70;56.50
63194;BME280;49289;51.670;5.624;2023-04-03T04:52:11;103274.77;;;7.71;56.54
63194;BME280;49289;51.670;5.624;2023-04-03T04:53:58;103273.77;;;7.75;56.39
63194;BME280;49289;51.670;5.624;2023-04-03T04:55:45;103256.08;;;7.61;56.46
63194;BME280;49289;51.670;5.624;2023-04-03T04:57:32;103262.84;;;7.55;56.66
63194;BME280;49289;51.670;5.624;2023-04-03T04:59:19;103261.17;;;7.57;56.80
63194;BME280;49289;51.670;5.624;2023-04-03T05:01:11;103256.66;;;7.50;56.86
63194;BME280;49289;51.670;5.624;2023-04-03T05:02:58;103281.48;;;7.54;57.20
63194;BME280;49289;51.670;5.624;2023-04-03T05:04:46;103280.48;;;7.48;57.33
63194;BME280;49289;51.670;5.624;2023-04-03T05:06:34;103284.48;;;7.50;57.20
63194;BME280;49289;51.670;5.624;2023-04-03T05:08:22;103283.38;;;7.61;57.14
63194;BME280;49289;51.670;5.624;2023-04-03T05:10:11;103292.70;;;7.67;56.87
63194;BME280;49289;51.670;5.624;2023-04-03T05:11:59;103287.05;;;7.69;56.89
63194;BME280;49289;51.670;5.624;2023-04-03T05:13:47;103289.36;;;7.77;56.82
63194;BME280;49289;51.670;5.624;2023-04-03T05:15:35;103265.97;;;7.62;56.57
63194;BME280;49289;51.670;5.624;2023-04-03T05:17:23;103285.46;;;7.79;56.48
63194;BME280;49289;51.670;5.624;2023-04-03T05:19:11;103284.78;;;7.75;56.46
63194;BME280;49289;51.670;5.624;2023-04-03T05:20:58;103286.83;;;7.73;56.50
63194;BME280;49289;51.670;5.624;2023-04-03T05:22:45;103292.47;;;7.68;56.52
63194;BME280;49289;51.670;5.624;2023-04-03T05:24:32;103270.25;;;7.70;56.32
63194;BME280;49289;51.670;5.624;2023-04-03T05:26:19;103270.08;;;7.68;56.34
63194;BME280;49289;51.670;5.624;2023-04-03T05:28:06;103271.47;;;7.57;56.37
63194;BME280;49289;51.670;5.624;2023-04-03T05:29:53;103295.17;;;7.72;56.60
63194;BME280;49289;51.670;5.624;2023-04-03T05:31:40;103290.38;;;7.84;56.35
63194;BME280;49289;51.670;5.624;2023-04-03T05:33:27;103270.11;;;7.79;56.20
63194;BME280;49289;51.670;5.624;2023-04-03T05:35:14;103289.95;;;7.93;56.07
63194;BME280;49289;51.670;5.624;2023-04-03T05:37:01;103268.70;;;7.83;56.06
63194;BME280;49289;51.670;5.624;2023-04-03T05:38:48;103269.76;;;7.88;55.99
63194;BME280;49289;51.670;5.624;2023-04-03T05:40:35;103273.93;;;7.84;56.04
63194;BME280;49289;51.670;5.624;2023-04-03T05:42:22;103294.56;;;7.88;56.30
63194;BME280;49289;51.670;5.624;2023-04-03T05:44:09;103299.23;;;7.71;56.28
63194;BME280;49289;51.670;5.624;2023-04-03T05:45:56;103279.22;;;7.75;56.27
63194;BME280;49289;51.670;5.624;2023-04-03T05:47:43;103281.95;;;7.83;56.15
63194;BME280;49289;51.670;5.624;2023-04-03T05:49:30;103283.00;;;7.92;56.01
63194;BME280;49289;51.670;5.624;2023-04-03T05:51:19;103306.31;;;8.07;55.91
63194;BME280;49289;51.670;5.624;2023-04-03T05:53:07;103312.56;;;8.02;55.85
63194;BME280;49289;51.670;5.624;2023-04-03T05:54:55;103316.97;;;8.15;55.71
63194;BME280;49289;51.670;5.624;2023-04-03T05:56:42;103316.93;;;8.17;55.78
63194;BME280;49289;51.670;5.624;2023-04-03T05:58:30;103318.15;;;8.16;55.71
63194;BME280;49289;51.670;5.624;2023-04-03T06:00:20;103318.18;;;8.25;55.81
63194;BME280;49289;51.670;5.624;2023-04-03T06:02:08;103324.63;;;8.33;55.46
63194;BME280;49289;51.670;5.624;2023-04-03T06:03:55;103320.80;;;8.17;55.40
63194;BME280;49289;51.670;5.624;2023-04-03T06:05:43;103321.45;;;8.02;55.84
63194;BME280;49289;51.670;5.624;2023-04-03T06:07:30;103321.23;;;7.97;55.83
63194;BME280;49289;51.670;5.624;2023-04-03T06:09:18;103302.67;;;7.98;55.50
63194;BME280;49289;51.670;5.624;2023-04-03T06:11:04;103319.60;;;8.14;55.39
63194;BME280;49289;51.670;5.624;2023-04-03T06:12:51;103317.41;;;8.11;55.37
63194;BME280;49289;51.670;5.624;2023-04-03T06:14:38;103322.01;;;8.38;55.32
63194;BME280;49289;51.670;5.624;2023-04-03T06:16:25;103302.62;;;8.12;54.98
63194;BME280;49289;51.670;5.624;2023-04-03T06:18:12;103326.34;;;8.53;54.74
63194;BME280;49289;51.670;5.624;2023-04-03T06:19:59;103324.83;;;8.41;54.47
63194;BME280;49289;51.670;5.624;2023-04-03T06:21:46;103302.92;;;8.30;55.00
63194;BME280;49289;51.670;5.624;2023-04-03T06:23:33;103320.83;;;7.73;55.55
63194;BME280;49289;51.670;5.624;2023-04-03T06:25:20;103305.67;;;8.15;55.08
63194;BME280;49289;51.670;5.624;2023-04-03T06:27:08;103323.95;;;8.23;54.86
63194;BME280;49289;51.670;5.624;2023-04-03T06:28:54;103326.38;;;8.54;54.20
63194;BME280;49289;51.670;5.624;2023-04-03T06:30:41;103304.45;;;8.59;53.66
63194;BME280;49289;51.670;5.624;2023-04-03T06:32:28;103321.03;;;8.75;53.67
63194;BME280;49289;51.670;5.624;2023-04-03T06:34:15;103307.70;;;8.46;53.53
63194;BME280;49289;51.670;5.624;2023-04-03T06:36:03;103329.41;;;8.36;53.83
63194;BME280;49289;51.670;5.624;2023-04-03T06:37:51;103317.86;;;8.11;53.83
63194;BME280;49289;51.670;5.624;2023-04-03T06:39:39;103323.98;;;8.54;53.51
63194;BME280;49289;51.670;5.624;2023-04-03T06:41:27;103327.59;;;8.87;53.25
63194;BME280;49289;51.670;5.624;2023-04-03T06:43:14;103329.21;;;8.62;53.18
63194;BME280;49289;51.670;5.624;2023-04-03T06:45:03;103337.49;;;8.52;53.31
63194;BME280;49289;51.670;5.624;2023-04-03T06:46:50;103310.77;;;8.84;52.90
63194;BME280;49289;51.670;5.624;2023-04-03T06:48:37;103314.55;;;8.69;52.75
63194;BME280;49289;51.670;5.624;2023-04-03T06:50:24;103317.05;;;8.35;53.11
63194;BME280;49289;51.670;5.624;2023-04-03T06:52:11;103314.67;;;8.83;52.77
63194;BME280;49289;51.670;5.624;2023-04-03T06:53:58;103346.27;;;8.63;52.63
63194;BME280;49289;51.670;5.624;2023-04-03T06:55:45;103335.14;;;8.96;52.39
63194;BME280;49289;51.670;5.624;2023-04-03T06:57:32;103318.20;;;8.95;52.20
63194;BME280;49289;51.670;5.624;2023-04-03T06:59:19;103322.25;;;8.77;52.15
63194;BME280;49289;51.670;5.624;2023-04-03T07:01:06;103345.02;;;8.94;52.45
63194;BME280;49289;51.670;5.624;2023-04-03T07:02:53;103338.94;;;9.14;52.33
63194;BME280;49289;51.670;5.624;2023-04-03T07:04:40;103240.04;;;8.42;52.01
63194;BME280;49289;51.670;5.624;2023-04-03T07:06:27;103344.67;;;8.98;51.91
63194;BME280;49289;51.670;5.624;2023-04-03T07:08:14;103345.12;;;8.68;52.05
63194;BME280;49289;51.670;5.624;2023-04-03T07:10:01;103351.02;;;8.76;52.38
63194;BME280;49289;51.670;5.624;2023-04-03T07:11:49;103358.06;;;8.79;52.87
63194;BME280;49289;51.670;5.624;2023-04-03T07:13:37;103355.25;;;8.82;52.51
63194;BME280;49289;51.670;5.624;2023-04-03T07:15:24;103360.76;;;8.64;52.15
63194;BME280;49289;51.670;5.624;2023-04-03T07:17:12;103361.50;;;8.71;52.60
63194;BME280;49289;51.670;5.624;2023-04-03T07:19:00;103355.60;;;9.09;51.76
63194;BME280;49289;51.670;5.624;2023-04-03T07:20:48;103337.52;;;9.52;51.09
63194;BME280;49289;51.670;5.624;2023-04-03T07:22:36;103357.98;;;9.66;50.59
63194;BME280;49289;51.670;5.624;2023-04-03T07:24:23;103354.95;;;9.23;51.70
63194;BME280;49289;51.670;5.624;2023-04-03T07:26:10;103343.83;;;9.06;51.59
63194;BME280;49289;51.670;5.624;2023-04-03T07:27:57;103342.26;;;8.95;50.86
63194;BME280;49289;51.670;5.624;2023-04-03T07:29:44;103348.12;;;9.28;50.84
63194;BME280;49289;51.670;5.624;2023-04-03T07:31:31;103367.30;;;8.48;52.31
63194;BME280;49289;51.670;5.624;2023-04-03T07:33:19;103373.37;;;8.91;52.13
63194;BME280;49289;51.670;5.624;2023-04-03T07:35:05;103349.16;;;8.97;51.70
63194;BME280;49289;51.670;5.624;2023-04-03T07:36:52;103355.09;;;9.50;51.17
63194;BME280;49289;51.670;5.624;2023-04-03T07:38:39;103347.00;;;9.94;49.93
63194;BME280;49289;51.670;5.624;2023-04-03T07:40:26;103373.08;;;9.36;50.13
63194;BME280;49289;51.670;5.624;2023-04-03T07:42:13;103373.92;;;9.30;50.56
63194;BME280;49289;51.670;5.624;2023-04-03T07:44:01;103374.55;;;9.37;50.22
63194;BME280;49289;51.670;5.624;2023-04-03T07:45:49;103356.88;;;9.64;49.82
63194;BME280;49289;51.670;5.624;2023-04-03T07:47:37;103377.99;;;9.78;49.81
63194;BME280;49289;51.670;5.624;2023-04-03T07:49:25;103376.80;;;9.92;49.48
63194;BME280;49289;51.670;5.624;2023-04-03T07:51:13;103382.32;;;9.31;49.68
63194;BME280;49289;51.670;5.624;2023-04-03T07:53:01;103362.47;;;9.24;50.92
63194;BME280;49289;51.670;5.624;2023-04-03T07:54:49;103363.23;;;10.07;49.67
63194;BME280;49289;51.670;5.624;2023-04-03T07:56:37;103375.00;;;10.35;49.29
63194;BME280;49289;51.670;5.624;2023-04-03T07:58:09;103362.69;;;10.47;48.62
63194;BME280;49289;51.670;5.624;2023-04-03T07:59:56;103361.49;;;10.15;48.11
63194;BME280;49289;51.670;5.624;2023-04-03T08:01:43;103366.59;;;10.46;47.95
63194;BME280;49289;51.670;5.624;2023-04-03T08:03:30;103382.64;;;10.71;47.80
63194;BME280;49289;51.670;5.624;2023-04-03T08:05:18;103383.25;;;9.97;47.92
63194;BME280;49289;51.670;5.624;2023-04-03T08:07:05;103382.09;;;10.33;47.58
63194;BME280;49289;51.670;5.624;2023-04-03T08:08:53;103363.45;;;10.39;48.00
63194;BME280;49289;51.670;5.624;2023-04-03T08:10:42;103366.56;;;10.51;48.30
63194;BME280;49289;51.670;5.624;2023-04-03T08:12:29;103362.23;;;10.66;47.28
63194;BME280;49289;51.670;5.624;2023-04-03T08:14:16;103379.78;;;10.56;46.74
63194;BME280;49289;51.670;5.624;2023-04-03T08:16:06;103365.27;;;10.60;47.43
63194;BME280;49289;51.670;5.624;2023-04-03T08:17:51;103360.83;;;10.24;47.41
63194;BME280;49289;51.670;5.624;2023-04-03T08:19:39;103368.47;;;10.49;46.89
63194;BME280;49289;51.670;5.624;2023-04-03T08:21:27;103379.43;;;10.33;47.20
63194;BME280;49289;51.670;5.624;2023-04-03T08:23:15;103384.27;;;10.94;46.03
63194;BME280;49289;51.670;5.624;2023-04-03T08:25:05;103380.56;;;11.27;44.24
63194;BME280;49289;51.670;5.624;2023-04-03T08:26:53;103361.06;;;10.24;44.40
63194;BME280;49289;51.670;5.624;2023-04-03T08:28:41;103361.77;;;10.70;44.11
63194;BME280;49289;51.670;5.624;2023-04-03T08:30:29;103379.03;;;11.21;44.31
63194;BME280;49289;51.670;5.624;2023-04-03T08:32:17;103382.74;;;11.28;43.54
63194;BME280;49289;51.670;5.624;2023-04-03T08:34:04;103368.75;;;10.93;43.65
63194;BME280;49289;51.670;5.624;2023-04-03T08:35:51;103366.06;;;10.80;43.79
63194;BME280;49289;51.670;5.624;2023-04-03T08:37:40;103383.13;;;10.94;43.69
63194;BME280;49289;51.670;5.624;2023-04-03T08:39:27;103363.11;;;11.66;43.51
63194;BME280;49289;51.670;5.624;2023-04-03T08:41:20;103378.70;;;11.69;42.90
63194;BME280;49289;51.670;5.624;2023-04-03T08:43:10;103363.66;;;11.93;42.71
63194;BME280;49289;51.670;5.624;2023-04-03T08:44:58;103357.47;;;11.56;42.69
63194;BME280;49289;51.670;5.624;2023-04-03T08:46:52;103381.59;;;12.08;41.64
63194;BME280;49289;51.670;5.624;2023-04-03T08:48:38;103376.78;;;11.70;41.42
63194;BME280;49289;51.670;5.624;2023-04-03T08:50:29;103363.62;;;11.32;41.39
63194;BME280;49289;51.670;5.624;2023-04-03T08:52:15;103362.40;;;11.76;40.46
63194;BME280;49289;51.670;5.624;2023-04-03T08:54:04;103363.14;;;11.72;38.74
63194;BME280;49289;51.670;5.624;2023-04-03T08:55:51;103381.67;;;11.63;38.04
63194;BME280;49289;51.670;5.624;2023-04-03T08:57:40;103385.55;;;12.00;39.44
63194;BME280;49289;51.670;5.624;2023-04-03T08:59:28;103381.46;;;11.77;38.43
63194;BME280;49289;51.670;5.624;2023-04-03T09:01:16;103386.02;;;12.46;38.01
63194;BME280;49289;51.670;5.624;2023-04-03T09:03:04;103386.68;;;12.24;37.29
63194;BME280;49289;51.670;5.624;2023-04-03T09:04:51;103386.86;;;12.56;38.12
63194;BME280;49289;51.670;5.624;2023-04-03T09:06:38;103386.00;;;12.43;37.03
63194;BME280;49289;51.670;5.624;2023-04-03T09:08:28;103372.77;;;12.75;36.56
63194;BME280;49289;51.670;5.624;2023-04-03T09:10:15;103382.42;;;12.57;37.26
63194;BME280;49289;51.670;5.624;2023-04-03T09:12:04;103379.08;;;12.25;36.35
63194;BME280;49289;51.670;5.624;2023-04-03T09:13:52;103372.16;;;12.16;36.68
63194;BME280;49289;51.670;5.624;2023-04-03T09:15:39;103370.33;;;12.62;36.88
63194;BME280;49289;51.670;5.624;2023-04-03T09:17:31;103369.83;;;13.33;37.42
63194;BME280;49289;51.670;5.624;2023-04-03T09:19:20;103394.06;;;13.06;33.91
63194;BME280;49289;51.670;5.624;2023-04-03T09:21:08;103387.37;;;13.24;35.27
63194;BME280;49289;51.670;5.624;2023-04-03T09:22:55;103385.97;;;13.59;36.27
63194;BME280;49289;51.670;5.624;2023-04-03T09:24:43;103376.75;;;13.68;35.52
63194;BME280;49289;51.670;5.624;2023-04-03T09:26:31;103388.34;;;13.43;33.93
63194;BME280;49289;51.670;5.624;2023-04-03T09:28:19;103375.87;;;13.03;33.96
63194;BME280;49289;51.670;5.624;2023-04-03T09:30:08;103368.91;;;13.60;33.88
63194;BME280;49289;51.670;5.624;2023-04-03T09:31:56;103366.55;;;13.77;33.06
63194;BME280;49289;51.670;5.624;2023-04-03T09:33:41;103384.26;;;13.62;33.79
63194;BME280;49289;51.670;5.624;2023-04-03T09:35:29;103388.52;;;13.29;32.21